sensor_id;sensor_type;location;lat;lon;timestamp;P1;durP1;ratioP1;P2;durP2;ratioP2
66607;SDS011;53462;39.616;8.824;2023-01-26T00:01:08;12.60;;;8.23;;
66607;SDS011;53462;39.616;8.824;2023-01-26T00:03:35;13.25;;;8.05;;
66607;SDS011;53462;39.616;8.824;2023-01-26T00:06:04;11.95;;;7.68;;
66607;SDS011;53462;39.616;8.824;2023-01-26T00:08:34;12.38;;;7.75;;
66607;SDS011;53462;39.616;8.824;2023-01-26T00:11:02;10.98;;;7.45;;
66607;SDS011;53462;39.616;8.824;2023-01-26T00:13:32;12.50;;;7.65;;
66607;SDS011;53462;39.616;8.824;2023-01-26T00:15:58;13.55;;;7.88;;
66607;SDS011;53462;39.616;8.824;2023-01-26T00:18:25;10.85;;;7.32;;
66607;SDS011;53462;39.616;8.824;2023-01-26T00:20:55;14.57;;;9.30;;
66607;SDS011;53462;39.616;8.824;2023-01-26T00:23:22;14.65;;;9.00;;
66607;SDS011;53462;39.616;8.824;2023-01-26T00:25:48;16.10;;;9.05;;
66607;SDS011;53462;39.616;8.824;2023-01-26T00:28:14;14.70;;;8.65;;
66607;SDS011;53462;39.616;8.824;2023-01-26T00:30:40;15.85;;;9.52;;
66607;SDS011;53462;39.616;8.824;2023-01-26T00:33:06;13.65;;;8.68;;
66607;SDS011;53462;39.616;8.824;2023-01-26T00:35:32;12.60;;;7.70;;
66607;SDS011;53462;39.616;8.824;2023-01-26T00:38:00;13.98;;;7.43;;
66607;SDS011;53462;39.616;8.824;2023-01-26T00:40:26;13.40;;;8.82;;
66607;SDS011;53462;39.616;8.824;2023-01-26T00:42:52;14.35;;;9.25;;
66607;SDS011;53462;39.616;8.824;2023-01-26T00:45:19;24.60;;;11.85;;
66607;SDS011;53462;39.616;8.824;2023-01-26T00:47:48;20.92;;;12.15;;
66607;SDS011;53462;39.616;8.824;2023-01-26T00:50:14;22.70;;;12.13;;
66607;SDS011;53462;39.616;8.824;2023-01-26T00:52:40;14.43;;;8.50;;
66607;SDS011;53462;39.616;8.824;2023-01-26T00:55:06;10.23;;;6.53;;
66607;SDS011;53462;39.616;8.824;2023-01-26T00:57:32;13.85;;;8.55;;
66607;SDS011;53462;39.616;8.824;2023-01-26T00:59:58;12.25;;;7.65;;
66607;SDS011;53462;39.616;8.824;2023-01-26T01:02:24;12.32;;;7.20;;
66607;SDS011;53462;39.616;8.824;2023-01-26T01:04:50;9.85;;;5.93;;
66607;SDS011;53462;39.616;8.824;2023-01-26T01:07:17;11.25;;;6.70;;
66607;SDS011;53462;39.616;8.824;2023-01-26T01:09:44;11.85;;;6.53;;
66607;SDS011;53462;39.616;8.824;2023-01-26T01:12:10;9.75;;;5.85;;
66607;SDS011;53462;39.616;8.824;2023-01-26T01:14:36;8.13;;;5.32;;
66607;SDS011;53462;39.616;8.824;2023-01-26T01:17:02;8.13;;;4.78;;
66607;SDS011;53462;39.616;8.824;2023-01-26T01:19:28;9.88;;;5.70;;
66607;SDS011;53462;39.616;8.824;2023-01-26T01:21:54;9.20;;;5.45;;
66607;SDS011;53462;39.616;8.824;2023-01-26T01:24:20;6.50;;;4.43;;
66607;SDS011;53462;39.616;8.824;2023-01-26T01:26:46;6.43;;;4.35;;
66607;SDS011;53462;39.616;8.824;2023-01-26T01:29:12;5.70;;;3.72;;
66607;SDS011;53462;39.616;8.824;2023-01-26T01:31:38;6.75;;;3.63;;
66607;SDS011;53462;39.616;8.824;2023-01-26T01:34:05;6.03;;;3.72;;
66607;SDS011;53462;39.616;8.824;2023-01-26T01:36:31;5.35;;;3.53;;
66607;SDS011;53462;39.616;8.824;2023-01-26T01:38:57;5.65;;;3.50;;
66607;SDS011;53462;39.616;8.824;2023-01-26T01:41:23;4.35;;;3.03;;
66607;SDS011;53462;39.616;8.824;2023-01-26T01:43:50;4.20;;;2.92;;
66607;SDS011;53462;39.616;8.824;2023-01-26T01:49:12;3.55;;;2.60;;
66607;SDS011;53462;39.616;8.824;2023-01-26T01:51:45;4.45;;;3.00;;
66607;SDS011;53462;39.616;8.824;2023-01-26T01:54:25;5.55;;;3.50;;
66607;SDS011;53462;39.616;8.824;2023-01-26T01:56:57;8.23;;;5.00;;
66607;SDS011;53462;39.616;8.824;2023-01-26T01:59:28;8.35;;;4.93;;
66607;SDS011;53462;39.616;8.824;2023-01-26T02:01:55;8.23;;;5.15;;
66607;SDS011;53462;39.616;8.824;2023-01-26T02:04:21;6.57;;;3.72;;
66607;SDS011;53462;39.616;8.824;2023-01-26T02:06:50;4.05;;;2.60;;
66607;SDS011;53462;39.616;8.824;2023-01-26T02:09:19;7.32;;;3.70;;
66607;SDS011;53462;39.616;8.824;2023-01-26T02:12:25;8.55;;;3.60;;
66607;SDS011;53462;39.616;8.824;2023-01-26T02:14:54;8.23;;;4.15;;
66607;SDS011;53462;39.616;8.824;2023-01-26T02:17:22;15.80;;;7.38;;
66607;SDS011;53462;39.616;8.824;2023-01-26T02:25:22;4.78;;;3.00;;
66607;SDS011;53462;39.616;8.824;2023-01-26T02:28:12;5.43;;;3.20;;
66607;SDS011;53462;39.616;8.824;2023-01-26T02:30:38;4.82;;;2.70;;
66607;SDS011;53462;39.616;8.824;2023-01-26T02:33:04;4.03;;;2.70;;
66607;SDS011;53462;39.616;8.824;2023-01-26T02:35:32;4.47;;;2.67;;
66607;SDS011;53462;39.616;8.824;2023-01-26T02:37:59;5.50;;;2.80;;
66607;SDS011;53462;39.616;8.824;2023-01-26T02:40:31;3.90;;;2.08;;
66607;SDS011;53462;39.616;8.824;2023-01-26T02:43:14;3.03;;;2.00;;
66607;SDS011;53462;39.616;8.824;2023-01-26T02:45:40;4.03;;;2.85;;
66607;SDS011;53462;39.616;8.824;2023-01-26T02:48:07;3.90;;;2.35;;
66607;SDS011;53462;39.616;8.824;2023-01-26T02:50:33;5.60;;;2.28;;
66607;SDS011;53462;39.616;8.824;2023-01-26T02:52:59;4.20;;;2.70;;
66607;SDS011;53462;39.616;8.824;2023-01-26T02:55:28;3.00;;;2.30;;
66607;SDS011;53462;39.616;8.824;2023-01-26T02:57:56;2.83;;;2.20;;
66607;SDS011;53462;39.616;8.824;2023-01-26T03:00:25;3.85;;;2.20;;
66607;SDS011;53462;39.616;8.824;2023-01-26T03:02:57;4.05;;;2.50;;
66607;SDS011;53462;39.616;8.824;2023-01-26T03:05:25;4.15;;;2.47;;
66607;SDS011;53462;39.616;8.824;2023-01-26T03:07:53;3.92;;;2.40;;
66607;SDS011;53462;39.616;8.824;2023-01-26T03:10:22;4.32;;;2.67;;
66607;SDS011;53462;39.616;8.824;2023-01-26T03:12:50;3.53;;;2.40;;
66607;SDS011;53462;39.616;8.824;2023-01-26T03:15:16;4.07;;;2.53;;
66607;SDS011;53462;39.616;8.824;2023-01-26T03:18:02;12.55;;;6.50;;
66607;SDS011;53462;39.616;8.824;2023-01-26T03:20:48;10.77;;;5.65;;
66607;SDS011;53462;39.616;8.824;2023-01-26T03:23:33;9.57;;;6.03;;
66607;SDS011;53462;39.616;8.824;2023-01-26T03:26:19;7.22;;;4.88;;
66607;SDS011;53462;39.616;8.824;2023-01-26T03:29:03;7.85;;;4.25;;
66607;SDS011;53462;39.616;8.824;2023-01-26T03:31:29;5.95;;;3.13;;
66607;SDS011;53462;39.616;8.824;2023-01-26T03:33:55;4.43;;;2.90;;
66607;SDS011;53462;39.616;8.824;2023-01-26T03:36:21;4.55;;;3.03;;
66607;SDS011;53462;39.616;8.824;2023-01-26T03:38:48;5.05;;;3.08;;
66607;SDS011;53462;39.616;8.824;2023-01-26T03:41:14;5.30;;;2.70;;
66607;SDS011;53462;39.616;8.824;2023-01-26T03:43:58;4.35;;;3.20;;
66607;SDS011;53462;39.616;8.824;2023-01-26T03:46:42;4.32;;;2.42;;
66607;SDS011;53462;39.616;8.824;2023-01-26T03:52:12;2.83;;;1.70;;
66607;SDS011;53462;39.616;8.824;2023-01-26T03:54:56;4.28;;;2.42;;
66607;SDS011;53462;39.616;8.824;2023-01-26T03:57:41;3.70;;;2.60;;
66607;SDS011;53462;39.616;8.824;2023-01-26T04:00:07;3.72;;;2.42;;
66607;SDS011;53462;39.616;8.824;2023-01-26T04:02:37;3.92;;;2.20;;
66607;SDS011;53462;39.616;8.824;2023-01-26T04:05:22;6.85;;;4.10;;
66607;SDS011;53462;39.616;8.824;2023-01-26T04:08:06;3.72;;;2.53;;
66607;SDS011;53462;39.616;8.824;2023-01-26T04:11:08;3.70;;;2.40;;
66607;SDS011;53462;39.616;8.824;2023-01-26T04:13:34;3.22;;;2.20;;
66607;SDS011;53462;39.616;8.824;2023-01-26T04:16:25;3.70;;;2.05;;
66607;SDS011;53462;39.616;8.824;2023-01-26T04:19:09;3.90;;;2.30;;
66607;SDS011;53462;39.616;8.824;2023-01-26T04:21:54;8.93;;;5.82;;
66607;SDS011;53462;39.616;8.824;2023-01-26T04:24:20;6.03;;;2.80;;
66607;SDS011;53462;39.616;8.824;2023-01-26T04:26:50;6.55;;;2.85;;
66607;SDS011;53462;39.616;8.824;2023-01-26T04:29:21;3.35;;;2.40;;
66607;SDS011;53462;39.616;8.824;2023-01-26T04:31:47;3.45;;;2.17;;
66607;SDS011;53462;39.616;8.824;2023-01-26T04:34:17;7.30;;;2.13;;
66607;SDS011;53462;39.616;8.824;2023-01-26T04:36:43;2.70;;;2.05;;
66607;SDS011;53462;39.616;8.824;2023-01-26T04:39:09;3.10;;;2.03;;
66607;SDS011;53462;39.616;8.824;2023-01-26T04:41:38;2.90;;;2.13;;
66607;SDS011;53462;39.616;8.824;2023-01-26T04:44:08;3.17;;;1.77;;
66607;SDS011;53462;39.616;8.824;2023-01-26T04:46:34;4.13;;;2.47;;
66607;SDS011;53462;39.616;8.824;2023-01-26T04:49:01;5.22;;;2.80;;
66607;SDS011;53462;39.616;8.824;2023-01-26T04:51:27;5.72;;;3.15;;
66607;SDS011;53462;39.616;8.824;2023-01-26T04:53:53;7.20;;;3.28;;
66607;SDS011;53462;39.616;8.824;2023-01-26T04:56:28;6.68;;;3.78;;
66607;SDS011;53462;39.616;8.824;2023-01-26T04:58:58;9.10;;;5.00;;
66607;SDS011;53462;39.616;8.824;2023-01-26T05:01:25;10.18;;;6.25;;
66607;SDS011;53462;39.616;8.824;2023-01-26T05:03:51;9.30;;;5.68;;
66607;SDS011;53462;39.616;8.824;2023-01-26T05:06:17;11.25;;;5.65;;
66607;SDS011;53462;39.616;8.824;2023-01-26T05:08:46;10.15;;;5.80;;
66607;SDS011;53462;39.616;8.824;2023-01-26T05:11:12;17.83;;;8.02;;
66607;SDS011;53462;39.616;8.824;2023-01-26T05:13:53;18.67;;;7.55;;
66607;SDS011;53462;39.616;8.824;2023-01-26T05:16:24;18.20;;;9.30;;
66607;SDS011;53462;39.616;8.824;2023-01-26T05:19:11;15.23;;;7.72;;
66607;SDS011;53462;39.616;8.824;2023-01-26T05:21:48;7.00;;;4.45;;
66607;SDS011;53462;39.616;8.824;2023-01-26T05:24:14;9.05;;;5.30;;
66607;SDS011;53462;39.616;8.824;2023-01-26T05:26:58;16.23;;;8.37;;
66607;SDS011;53462;39.616;8.824;2023-01-26T05:29:44;7.15;;;3.80;;
66607;SDS011;53462;39.616;8.824;2023-01-26T05:32:10;18.38;;;8.82;;
66607;SDS011;53462;39.616;8.824;2023-01-26T05:34:36;5.15;;;2.97;;
66607;SDS011;53462;39.616;8.824;2023-01-26T05:37:03;3.33;;;2.30;;
66607;SDS011;53462;39.616;8.824;2023-01-26T05:39:30;4.70;;;2.22;;
66607;SDS011;53462;39.616;8.824;2023-01-26T05:41:57;2.47;;;1.85;;
66607;SDS011;53462;39.616;8.824;2023-01-26T05:44:23;2.63;;;2.05;;
66607;SDS011;53462;39.616;8.824;2023-01-26T05:47:04;22.42;;;13.82;;
66607;SDS011;53462;39.616;8.824;2023-01-26T05:49:30;13.23;;;8.07;;
66607;SDS011;53462;39.616;8.824;2023-01-26T05:51:56;13.65;;;7.72;;
66607;SDS011;53462;39.616;8.824;2023-01-26T05:54:23;5.28;;;3.13;;
66607;SDS011;53462;39.616;8.824;2023-01-26T05:56:49;4.55;;;3.20;;
66607;SDS011;53462;39.616;8.824;2023-01-26T05:59:17;4.22;;;2.97;;
66607;SDS011;53462;39.616;8.824;2023-01-26T06:01:44;5.30;;;3.60;;
66607;SDS011;53462;39.616;8.824;2023-01-26T06:04:10;6.72;;;4.90;;
66607;SDS011;53462;39.616;8.824;2023-01-26T06:06:43;10.05;;;5.32;;
66607;SDS011;53462;39.616;8.824;2023-01-26T06:09:24;21.98;;;14.07;;
66607;SDS011;53462;39.616;8.824;2023-01-26T06:12:22;12.15;;;6.80;;
66607;SDS011;53462;39.616;8.824;2023-01-26T06:15:11;8.27;;;5.18;;
66607;SDS011;53462;39.616;8.824;2023-01-26T06:17:41;10.88;;;6.40;;
66607;SDS011;53462;39.616;8.824;2023-01-26T06:20:11;8.57;;;5.78;;
66607;SDS011;53462;39.616;8.824;2023-01-26T06:22:40;8.52;;;5.35;;
66607;SDS011;53462;39.616;8.824;2023-01-26T06:25:06;8.57;;;6.13;;
66607;SDS011;53462;39.616;8.824;2023-01-26T06:27:33;10.13;;;7.30;;
66607;SDS011;53462;39.616;8.824;2023-01-26T06:30:04;10.68;;;7.25;;
66607;SDS011;53462;39.616;8.824;2023-01-26T06:32:32;10.35;;;6.07;;
66607;SDS011;53462;39.616;8.824;2023-01-26T06:34:58;8.65;;;5.53;;
66607;SDS011;53462;39.616;8.824;2023-01-26T06:37:24;8.05;;;5.28;;
66607;SDS011;53462;39.616;8.824;2023-01-26T06:39:51;6.57;;;3.72;;
66607;SDS011;53462;39.616;8.824;2023-01-26T06:42:17;8.15;;;4.57;;
66607;SDS011;53462;39.616;8.824;2023-01-26T06:44:43;9.15;;;5.28;;
66607;SDS011;53462;39.616;8.824;2023-01-26T06:47:09;11.88;;;8.10;;
66607;SDS011;53462;39.616;8.824;2023-01-26T06:49:37;8.23;;;5.07;;
66607;SDS011;53462;39.616;8.824;2023-01-26T06:52:04;26.65;;;12.23;;
66607;SDS011;53462;39.616;8.824;2023-01-26T06:54:47;36.22;;;11.65;;
66607;SDS011;53462;39.616;8.824;2023-01-26T06:57:27;21.30;;;8.40;;
66607;SDS011;53462;39.616;8.824;2023-01-26T06:59:59;20.58;;;7.85;;
66607;SDS011;53462;39.616;8.824;2023-01-26T07:02:50;34.05;;;11.70;;
66607;SDS011;53462;39.616;8.824;2023-01-26T07:05:16;41.75;;;14.40;;
66607;SDS011;53462;39.616;8.824;2023-01-26T07:07:42;54.95;;;21.13;;
66607;SDS011;53462;39.616;8.824;2023-01-26T07:10:09;64.72;;;27.55;;
66607;SDS011;53462;39.616;8.824;2023-01-26T07:12:42;46.20;;;22.83;;
66607;SDS011;53462;39.616;8.824;2023-01-26T07:15:10;46.40;;;25.33;;
66607;SDS011;53462;39.616;8.824;2023-01-26T07:17:39;47.08;;;25.42;;
66607;SDS011;53462;39.616;8.824;2023-01-26T07:20:05;52.28;;;25.95;;
66607;SDS011;53462;39.616;8.824;2023-01-26T07:22:32;32.90;;;18.48;;
66607;SDS011;53462;39.616;8.824;2023-01-26T07:24:58;48.25;;;27.55;;
66607;SDS011;53462;39.616;8.824;2023-01-26T07:27:24;51.78;;;28.83;;
66607;SDS011;53462;39.616;8.824;2023-01-26T07:29:50;48.70;;;26.95;;
66607;SDS011;53462;39.616;8.824;2023-01-26T07:32:16;39.78;;;22.25;;
66607;SDS011;53462;39.616;8.824;2023-01-26T07:34:42;47.28;;;24.63;;
66607;SDS011;53462;39.616;8.824;2023-01-26T07:37:08;43.25;;;24.63;;
66607;SDS011;53462;39.616;8.824;2023-01-26T07:39:34;44.80;;;24.83;;
66607;SDS011;53462;39.616;8.824;2023-01-26T07:41:59;59.42;;;30.60;;
66607;SDS011;53462;39.616;8.824;2023-01-26T07:44:46;56.55;;;28.50;;
66607;SDS011;53462;39.616;8.824;2023-01-26T07:47:12;60.88;;;30.30;;
66607;SDS011;53462;39.616;8.824;2023-01-26T07:49:39;46.28;;;21.90;;
66607;SDS011;53462;39.616;8.824;2023-01-26T07:52:05;30.80;;;15.48;;
66607;SDS011;53462;39.616;8.824;2023-01-26T07:54:32;53.55;;;21.30;;
66607;SDS011;53462;39.616;8.824;2023-01-26T07:56:59;80.90;;;35.20;;
66607;SDS011;53462;39.616;8.824;2023-01-26T07:59:25;84.32;;;35.65;;
66607;SDS011;53462;39.616;8.824;2023-01-26T08:01:51;80.95;;;35.45;;
66607;SDS011;53462;39.616;8.824;2023-01-26T08:04:17;70.18;;;28.38;;
66607;SDS011;53462;39.616;8.824;2023-01-26T08:06:43;50.28;;;20.30;;
66607;SDS011;53462;39.616;8.824;2023-01-26T08:09:09;49.58;;;22.52;;
66607;SDS011;53462;39.616;8.824;2023-01-26T08:11:35;52.00;;;23.50;;
66607;SDS011;53462;39.616;8.824;2023-01-26T08:14:01;49.17;;;21.83;;
66607;SDS011;53462;39.616;8.824;2023-01-26T08:16:27;36.75;;;18.08;;
66607;SDS011;53462;39.616;8.824;2023-01-26T08:18:53;43.50;;;20.63;;
66607;SDS011;53462;39.616;8.824;2023-01-26T08:21:19;36.15;;;17.83;;
66607;SDS011;53462;39.616;8.824;2023-01-26T08:23:48;36.72;;;18.10;;
66607;SDS011;53462;39.616;8.824;2023-01-26T08:26:15;36.40;;;15.88;;
66607;SDS011;53462;39.616;8.824;2023-01-26T08:28:42;37.92;;;14.20;;
66607;SDS011;53462;39.616;8.824;2023-01-26T08:31:09;44.88;;;18.60;;
66607;SDS011;53462;39.616;8.824;2023-01-26T08:33:37;37.30;;;16.00;;
66607;SDS011;53462;39.616;8.824;2023-01-26T08:36:06;27.92;;;12.02;;
66607;SDS011;53462;39.616;8.824;2023-01-26T08:38:34;25.90;;;11.27;;
66607;SDS011;53462;39.616;8.824;2023-01-26T08:41:00;19.30;;;9.75;;
66607;SDS011;53462;39.616;8.824;2023-01-26T08:43:27;33.13;;;16.80;;
66607;SDS011;53462;39.616;8.824;2023-01-26T08:45:53;22.95;;;12.77;;
66607;SDS011;53462;39.616;8.824;2023-01-26T08:48:19;14.82;;;7.03;;
66607;SDS011;53462;39.616;8.824;2023-01-26T08:50:45;15.13;;;8.85;;
66607;SDS011;53462;39.616;8.824;2023-01-26T08:53:12;15.52;;;10.93;;
66607;SDS011;53462;39.616;8.824;2023-01-26T08:55:38;13.75;;;7.82;;
66607;SDS011;53462;39.616;8.824;2023-01-26T08:58:04;11.48;;;6.47;;
66607;SDS011;53462;39.616;8.824;2023-01-26T09:00:30;18.25;;;10.68;;
66607;SDS011;53462;39.616;8.824;2023-01-26T09:03:00;15.25;;;10.48;;
66607;SDS011;53462;39.616;8.824;2023-01-26T09:05:32;10.18;;;6.82;;
66607;SDS011;53462;39.616;8.824;2023-01-26T09:08:00;14.07;;;10.88;;
66607;SDS011;53462;39.616;8.824;2023-01-26T09:10:26;7.63;;;5.75;;
66607;SDS011;53462;39.616;8.824;2023-01-26T09:12:52;11.43;;;6.28;;
66607;SDS011;53462;39.616;8.824;2023-01-26T09:15:18;17.58;;;9.40;;
66607;SDS011;53462;39.616;8.824;2023-01-26T09:17:46;11.75;;;6.93;;
66607;SDS011;53462;39.616;8.824;2023-01-26T09:20:13;9.20;;;6.25;;
66607;SDS011;53462;39.616;8.824;2023-01-26T09:22:39;7.18;;;5.10;;
66607;SDS011;53462;39.616;8.824;2023-01-26T09:25:05;6.80;;;4.75;;
66607;SDS011;53462;39.616;8.824;2023-01-26T09:27:31;6.35;;;4.75;;
66607;SDS011;53462;39.616;8.824;2023-01-26T09:29:57;6.45;;;4.82;;
66607;SDS011;53462;39.616;8.824;2023-01-26T09:32:24;17.25;;;11.63;;
66607;SDS011;53462;39.616;8.824;2023-01-26T09:34:50;14.90;;;9.45;;
66607;SDS011;53462;39.616;8.824;2023-01-26T09:37:16;10.63;;;8.40;;
66607;SDS011;53462;39.616;8.824;2023-01-26T09:39:42;8.57;;;5.85;;
66607;SDS011;53462;39.616;8.824;2023-01-26T09:45:28;7.63;;;4.10;;
66607;SDS011;53462;39.616;8.824;2023-01-26T09:51:26;10.65;;;5.10;;
66607;SDS011;53462;39.616;8.824;2023-01-26T09:54:01;6.15;;;3.70;;
66607;SDS011;53462;39.616;8.824;2023-01-26T09:56:29;10.80;;;4.93;;
66607;SDS011;53462;39.616;8.824;2023-01-26T09:58:58;12.70;;;7.00;;
66607;SDS011;53462;39.616;8.824;2023-01-26T10:01:43;14.82;;;10.13;;
66607;SDS011;53462;39.616;8.824;2023-01-26T10:06:51;27.08;;;19.45;;
66607;SDS011;53462;39.616;8.824;2023-01-26T10:09:45;15.80;;;9.23;;
66607;SDS011;53462;39.616;8.824;2023-01-26T10:14:50;10.95;;;7.40;;
66607;SDS011;53462;39.616;8.824;2023-01-26T10:17:53;12.07;;;8.60;;
66607;SDS011;53462;39.616;8.824;2023-01-26T10:20:26;14.52;;;9.73;;
66607;SDS011;53462;39.616;8.824;2023-01-26T10:23:08;18.55;;;13.65;;
66607;SDS011;53462;39.616;8.824;2023-01-26T10:25:41;21.42;;;15.05;;
66607;SDS011;53462;39.616;8.824;2023-01-26T10:30:47;38.15;;;27.08;;
66607;SDS011;53462;39.616;8.824;2023-01-26T10:35:44;23.45;;;16.77;;
66607;SDS011;53462;39.616;8.824;2023-01-26T10:43:53;8.27;;;5.97;;
66607;SDS011;53462;39.616;8.824;2023-01-26T10:46:31;9.38;;;6.78;;
66607;SDS011;53462;39.616;8.824;2023-01-26T10:49:12;10.45;;;6.75;;
66607;SDS011;53462;39.616;8.824;2023-01-26T10:51:41;9.27;;;6.13;;
66607;SDS011;53462;39.616;8.824;2023-01-26T10:56:46;50.90;;;24.73;;
66607;SDS011;53462;39.616;8.824;2023-01-26T10:59:30;20.13;;;11.75;;
66607;SDS011;53462;39.616;8.824;2023-01-26T11:01:59;19.50;;;13.43;;
66607;SDS011;53462;39.616;8.824;2023-01-26T11:04:34;15.15;;;10.27;;
66607;SDS011;53462;39.616;8.824;2023-01-26T11:07:43;13.85;;;8.30;;
66607;SDS011;53462;39.616;8.824;2023-01-26T11:09:53;20.55;;;9.75;;
66607;SDS011;53462;39.616;8.824;2023-01-26T11:12:21;15.00;;;9.70;;
66607;SDS011;53462;39.616;8.824;2023-01-26T11:17:33;27.02;;;16.48;;
66607;SDS011;53462;39.616;8.824;2023-01-26T11:35:07;20.23;;;13.50;;
66607;SDS011;53462;39.616;8.824;2023-01-26T11:38:06;11.52;;;9.15;;
66607;SDS011;53462;39.616;8.824;2023-01-26T11:44:49;11.82;;;8.15;;
66607;SDS011;53462;39.616;8.824;2023-01-26T11:47:25;19.83;;;13.82;;
66607;SDS011;53462;39.616;8.824;2023-01-26T11:52:45;28.00;;;19.30;;
66607;SDS011;53462;39.616;8.824;2023-01-26T11:55:23;20.45;;;14.10;;
66607;SDS011;53462;39.616;8.824;2023-01-26T12:01:06;19.90;;;13.25;;
66607;SDS011;53462;39.616;8.824;2023-01-26T12:03:41;15.05;;;10.90;;
66607;SDS011;53462;39.616;8.824;2023-01-26T12:09:04;27.20;;;16.73;;
66607;SDS011;53462;39.616;8.824;2023-01-26T12:11:32;17.73;;;10.45;;
66607;SDS011;53462;39.616;8.824;2023-01-26T12:17:25;17.40;;;11.55;;
66607;SDS011;53462;39.616;8.824;2023-01-26T12:25:46;12.85;;;9.27;;
66607;SDS011;53462;39.616;8.824;2023-01-26T12:28:21;14.50;;;10.23;;
66607;SDS011;53462;39.616;8.824;2023-01-26T12:33:48;23.95;;;15.38;;
66607;SDS011;53462;39.616;8.824;2023-01-26T12:36:23;16.80;;;11.13;;
66607;SDS011;53462;39.616;8.824;2023-01-26T12:42:00;26.50;;;17.45;;
66607;SDS011;53462;39.616;8.824;2023-01-26T12:45:09;25.90;;;17.05;;
66607;SDS011;53462;39.616;8.824;2023-01-26T12:50:39;24.52;;;15.68;;
66607;SDS011;53462;39.616;8.824;2023-01-26T12:53:19;22.02;;;14.48;;
66607;SDS011;53462;39.616;8.824;2023-01-26T12:56:15;23.10;;;13.77;;
66607;SDS011;53462;39.616;8.824;2023-01-26T12:58:48;29.38;;;17.08;;
66607;SDS011;53462;39.616;8.824;2023-01-26T13:01:20;31.42;;;19.63;;
66607;SDS011;53462;39.616;8.824;2023-01-26T13:04:08;20.90;;;14.63;;
66607;SDS011;53462;39.616;8.824;2023-01-26T13:06:37;26.15;;;13.60;;
66607;SDS011;53462;39.616;8.824;2023-01-26T13:09:24;18.15;;;11.90;;
66607;SDS011;53462;39.616;8.824;2023-01-26T13:11:56;21.63;;;13.07;;
66607;SDS011;53462;39.616;8.824;2023-01-26T13:32:52;13.80;;;8.88;;
66607;SDS011;53462;39.616;8.824;2023-01-26T13:35:26;12.50;;;7.18;;
66607;SDS011;53462;39.616;8.824;2023-01-26T13:38:05;9.38;;;6.47;;
66607;SDS011;53462;39.616;8.824;2023-01-26T13:40:44;12.80;;;7.30;;
66607;SDS011;53462;39.616;8.824;2023-01-26T13:48:35;15.57;;;10.05;;
66607;SDS011;53462;39.616;8.824;2023-01-26T13:51:05;13.40;;;8.70;;
66607;SDS011;53462;39.616;8.824;2023-01-26T13:53:36;14.70;;;8.73;;
66607;SDS011;53462;39.616;8.824;2023-01-26T13:56:24;15.48;;;11.05;;
66607;SDS011;53462;39.616;8.824;2023-01-26T13:58:51;19.55;;;12.43;;
66607;SDS011;53462;39.616;8.824;2023-01-26T14:01:17;9.75;;;5.57;;
66607;SDS011;53462;39.616;8.824;2023-01-26T14:03:44;10.77;;;6.65;;
66607;SDS011;53462;39.616;8.824;2023-01-26T14:06:15;14.60;;;6.93;;
66607;SDS011;53462;39.616;8.824;2023-01-26T14:08:47;12.13;;;6.75;;
66607;SDS011;53462;39.616;8.824;2023-01-26T14:11:20;14.75;;;7.90;;
66607;SDS011;53462;39.616;8.824;2023-01-26T14:13:49;11.20;;;6.68;;
66607;SDS011;53462;39.616;8.824;2023-01-26T14:16:21;7.15;;;4.90;;
66607;SDS011;53462;39.616;8.824;2023-01-26T14:18:47;7.65;;;5.32;;
66607;SDS011;53462;39.616;8.824;2023-01-26T14:21:18;12.82;;;6.97;;
66607;SDS011;53462;39.616;8.824;2023-01-26T14:23:49;11.15;;;5.45;;
66607;SDS011;53462;39.616;8.824;2023-01-26T14:26:40;8.57;;;5.60;;
66607;SDS011;53462;39.616;8.824;2023-01-26T14:29:09;9.68;;;5.28;;
66607;SDS011;53462;39.616;8.824;2023-01-26T14:31:41;7.43;;;5.30;;
66607;SDS011;53462;39.616;8.824;2023-01-26T14:34:08;13.48;;;6.63;;
66607;SDS011;53462;39.616;8.824;2023-01-26T14:36:35;10.80;;;6.28;;
66607;SDS011;53462;39.616;8.824;2023-01-26T14:39:10;8.25;;;5.25;;
66607;SDS011;53462;39.616;8.824;2023-01-26T14:41:41;12.32;;;7.47;;
66607;SDS011;53462;39.616;8.824;2023-01-26T14:44:07;6.75;;;5.20;;
66607;SDS011;53462;39.616;8.824;2023-01-26T14:49:13;14.15;;;8.32;;
66607;SDS011;53462;39.616;8.824;2023-01-26T14:51:47;13.48;;;8.20;;
66607;SDS011;53462;39.616;8.824;2023-01-26T14:54:23;20.73;;;9.88;;
66607;SDS011;53462;39.616;8.824;2023-01-26T14:56:55;22.20;;;13.00;;
66607;SDS011;53462;39.616;8.824;2023-01-26T14:59:24;15.10;;;9.95;;
66607;SDS011;53462;39.616;8.824;2023-01-26T15:04:39;15.93;;;10.30;;
66607;SDS011;53462;39.616;8.824;2023-01-26T15:07:20;16.48;;;10.40;;
66607;SDS011;53462;39.616;8.824;2023-01-26T15:09:50;20.13;;;12.65;;
66607;SDS011;53462;39.616;8.824;2023-01-26T15:12:17;20.45;;;13.07;;
66607;SDS011;53462;39.616;8.824;2023-01-26T15:17:39;13.25;;;8.68;;
66607;SDS011;53462;39.616;8.824;2023-01-26T15:20:10;12.48;;;8.10;;
66607;SDS011;53462;39.616;8.824;2023-01-26T15:22:39;10.85;;;6.95;;
66607;SDS011;53462;39.616;8.824;2023-01-26T15:25:24;10.20;;;5.40;;
66607;SDS011;53462;39.616;8.824;2023-01-26T15:27:52;35.92;;;18.05;;
66607;SDS011;53462;39.616;8.824;2023-01-26T15:30:24;21.58;;;11.82;;
66607;SDS011;53462;39.616;8.824;2023-01-26T15:32:55;16.38;;;8.27;;
66607;SDS011;53462;39.616;8.824;2023-01-26T15:35:26;26.00;;;12.85;;
66607;SDS011;53462;39.616;8.824;2023-01-26T15:38:00;23.52;;;14.65;;
66607;SDS011;53462;39.616;8.824;2023-01-26T15:40:30;22.63;;;14.13;;
66607;SDS011;53462;39.616;8.824;2023-01-26T15:45:52;47.97;;;29.00;;
66607;SDS011;53462;39.616;8.824;2023-01-26T15:48:21;41.95;;;24.70;;
66607;SDS011;53462;39.616;8.824;2023-01-26T15:50:48;25.45;;;16.90;;
66607;SDS011;53462;39.616;8.824;2023-01-26T15:53:15;30.80;;;19.05;;
66607;SDS011;53462;39.616;8.824;2023-01-26T15:55:47;29.73;;;18.45;;
66607;SDS011;53462;39.616;8.824;2023-01-26T15:58:19;37.17;;;21.60;;
66607;SDS011;53462;39.616;8.824;2023-01-26T16:00:53;41.60;;;25.20;;
66607;SDS011;53462;39.616;8.824;2023-01-26T16:03:20;34.88;;;23.23;;
66607;SDS011;53462;39.616;8.824;2023-01-26T16:05:46;37.72;;;23.30;;
66607;SDS011;53462;39.616;8.824;2023-01-26T16:08:12;29.45;;;18.80;;
66607;SDS011;53462;39.616;8.824;2023-01-26T16:10:42;28.02;;;17.05;;
66607;SDS011;53462;39.616;8.824;2023-01-26T16:13:12;29.88;;;18.58;;
66607;SDS011;53462;39.616;8.824;2023-01-26T16:15:44;21.10;;;13.30;;
66607;SDS011;53462;39.616;8.824;2023-01-26T16:18:12;29.02;;;16.88;;
66607;SDS011;53462;39.616;8.824;2023-01-26T16:20:40;22.88;;;14.63;;
66607;SDS011;53462;39.616;8.824;2023-01-26T16:25:52;22.23;;;13.38;;
66607;SDS011;53462;39.616;8.824;2023-01-26T16:28:19;21.38;;;12.57;;
66607;SDS011;53462;39.616;8.824;2023-01-26T16:30:46;23.23;;;12.68;;
66607;SDS011;53462;39.616;8.824;2023-01-26T16:33:18;25.90;;;14.38;;
66607;SDS011;53462;39.616;8.824;2023-01-26T16:35:48;27.70;;;16.60;;
66607;SDS011;53462;39.616;8.824;2023-01-26T16:38:14;30.83;;;17.88;;
66607;SDS011;53462;39.616;8.824;2023-01-26T16:40:43;25.23;;;14.85;;
66607;SDS011;53462;39.616;8.824;2023-01-26T16:45:48;32.45;;;18.23;;
66607;SDS011;53462;39.616;8.824;2023-01-26T16:48:14;26.45;;;15.30;;
66607;SDS011;53462;39.616;8.824;2023-01-26T16:50:42;21.75;;;11.80;;
66607;SDS011;53462;39.616;8.824;2023-01-26T16:53:30;22.67;;;12.27;;
66607;SDS011;53462;39.616;8.824;2023-01-26T16:55:57;24.23;;;11.75;;
66607;SDS011;53462;39.616;8.824;2023-01-26T16:58:23;21.58;;;12.20;;
66607;SDS011;53462;39.616;8.824;2023-01-26T17:00:50;22.25;;;11.98;;